CYQH

Watson Lake Airport

Watson Lake, , Canada
TAF CYQH 160538Z 1606/1618 VRB03KT P6SM BKN120 OVC200 TEMPO 1606/1609 P6SM -SN BKN070 OVC120 FM160900 VRB03KT P6SM BKN050 OVC080 TEMPO 1609/1615 2SM -SN OVC030 FM161500 VRB03KT 5SM -SN BR OVC030 TEMPO 1615/1618 1SM -SHSN VV008 RMK NXT FCST BY 161200Z
Issued Valid From Valid To
Dec-16 @ 05:38 UTC
(3 hours ago)
Dec-16 @ 06:00 UTC
(3 hours ago)
Dec-16 @ 18:00 UTC
(in 9 hours)
Dec-16 @ 06:00 to Dec-16 @ 09:00
TAF CYQH 160538Z 1606/1618 VRB03KT P6SM BKN120 OVC200
Wind Visibility Clouds
Variable at 3 knots Greater than 6 miles
  • Broken at 12,000' AGL
  • Overcast at 20,000' AGL
Temporary Dec-16 @ 06:00 to Dec-16 @ 09:00
TEMPO 1606/1609 P6SM -SN BKN070 OVC120
Visibility Clouds Conditions
Greater than 6 miles
  • Broken at 7,000' AGL
  • Overcast at 12,000' AGL
  • Light Snow
From Dec-16 @ 09:00 to Dec-16 @ 15:00
FM160900 VRB03KT P6SM BKN050 OVC080
Wind Visibility Clouds
Variable at 3 knots Greater than 6 miles
  • Broken at 5,000' AGL
  • Overcast at 8,000' AGL
Temporary Dec-16 @ 09:00 to Dec-16 @ 15:00
TEMPO 1609/1615 2SM -SN OVC030
Visibility Clouds Conditions
2 miles
  • Overcast at 3,000' AGL
  • Light Snow
Temporary Dec-16 @ 15:00 to Dec-16 @ 18:00
TEMPO 1615/1618 1SM -SHSN VV008 RMK NXT FCST BY 161200Z
Visibility Clouds Conditions
1 miles
  • Vertical visibility at 800' AGL
  • Light Snow
From Dec-16 @ 15:00 to Dec-16 @ 18:00
FM161500 VRB03KT 5SM -SN BR OVC030
Wind Visibility Clouds Conditions
Variable at 3 knots 5 miles
  • Overcast at 3,000' AGL
  • Light Snow
  • Mist
TAF CYQH 160538Z 1606/1618 VRB03KT P6SM BKN120 OVC200 TEMPO 1606/1609 P6SM -SN BKN070 OVC120 FM160900 VRB03KT P6SM BKN050 OVC080 TEMPO 1609/1615 2SM -SN OVC030 FM161500 VRB03KT 5SM -SN BR OVC030 TEMPO 1615/1618 1SM -SHSN VV008 RMK NXT FCST BY 161200Z
Issued Dec-16 @ 05:38 UTC
(3 hours ago)
Valid From Dec-16 @ 06:00 UTC
(3 hours ago)
Valid To Dec-16 @ 18:00 UTC
(in 9 hours)
Dec-16 @ 06:00 - Dec-16 @ 09:00
Wind Visibility
Variable at 3 knots Greater than 6 miles
Clouds
  • Broken at 12,000' AGL
  • Overcast at 20,000' AGL
Temporary Dec-16 @ 06:00 - Dec-16 @ 09:00
Clouds
  • Broken at 7,000' AGL
  • Overcast at 12,000' AGL
Conditions
  • Light Snow
From Dec-16 @ 09:00 - Dec-16 @ 15:00
Wind Visibility
Variable at 3 knots Greater than 6 miles
Clouds
  • Broken at 5,000' AGL
  • Overcast at 8,000' AGL
Temporary Dec-16 @ 09:00 - Dec-16 @ 15:00
Clouds
  • Overcast at 3,000' AGL
Conditions
  • Light Snow
Temporary Dec-16 @ 15:00 - Dec-16 @ 18:00
Clouds
  • Vertical visibility at 800' AGL
Conditions
  • Light Snow
From Dec-16 @ 15:00 - Dec-16 @ 18:00
Wind Visibility
Variable at 3 knots 5 miles
Clouds
  • Overcast at 3,000' AGL
Conditions
  • Light Snow
  • Mist